createdAt,value
2017-04-21T00:00:26.037Z,45.85
2017-04-21T00:00:47.732Z,45.87
2017-04-21T00:01:46.110Z,46.40
2017-04-21T00:02:07.799Z,46.57
2017-04-21T00:03:15.154Z,46.07
2017-04-21T00:03:39.677Z,46.51
2017-04-21T00:04:06.159Z,47.07
2017-04-21T00:04:27.958Z,47.18
2017-04-21T00:04:54.441Z,47.44
2017-04-21T00:05:18.955Z,47.78
2017-04-21T00:05:45.522Z,47.31
2017-04-21T00:06:07.223Z,47.18
2017-04-21T00:06:33.720Z,47.06
2017-04-21T00:06:55.427Z,47.05
2017-04-21T00:07:21.962Z,47.32
2017-04-21T00:07:43.679Z,47.71
2017-04-21T00:08:10.170Z,47.23
2017-04-21T00:08:31.894Z,47.48
2017-04-21T00:09:34.411Z,46.82
2017-04-21T00:10:00.902Z,46.82
2017-04-21T00:10:59.333Z,46.45
2017-04-21T00:11:25.819Z,46.19
2017-04-21T00:12:24.257Z,46.07
2017-04-21T00:12:50.739Z,46.10
2017-04-21T00:13:22.005Z,46.01
2017-04-21T00:13:43.806Z,46.04
2017-04-21T00:14:10.294Z,45.90
2017-04-21T00:14:32.014Z,46.00
2017-04-21T00:14:53.779Z,45.94
2017-04-21T00:15:20.246Z,45.79
2017-04-21T00:15:41.944Z,46.43
2017-04-21T00:16:03.637Z,46.45
2017-04-21T00:16:34.906Z,46.11
2017-04-21T00:16:56.668Z,45.81
2017-04-21T00:17:18.369Z,45.84
2017-04-21T00:17:49.737Z,46.20
2017-04-21T00:18:11.379Z,46.23
2017-04-21T00:18:33.086Z,46.33
2017-04-21T00:18:59.586Z,46.40
2017-04-21T00:19:21.386Z,46.09
2017-04-21T00:19:47.857Z,45.84
2017-04-21T00:20:09.595Z,45.92
2017-04-21T00:20:40.986Z,45.99
2017-04-21T00:21:02.621Z,45.83
2017-04-21T00:21:33.874Z,45.56
2017-04-21T00:21:55.694Z,45.61
2017-04-21T00:22:26.991Z,46.01
2017-04-21T00:22:48.679Z,45.93
2017-04-21T00:23:20.058Z,46.37
2017-04-21T00:23:41.691Z,46.02
2017-04-21T00:24:12.952Z,46.21
2017-04-21T00:24:34.746Z,46.27
2017-04-21T00:25:06.001Z,46.29
2017-04-21T00:25:27.702Z,46.17
2017-04-21T00:25:54.259Z,45.96
2017-04-21T00:26:15.961Z,45.73
2017-04-21T00:26:37.659Z,45.79
2017-04-21T00:26:59.364Z,46.16
2017-04-21T00:27:21.157Z,46.19
2017-04-21T00:27:42.875Z,46.24
2017-04-21T00:28:04.596Z,46.26
2017-04-21T00:28:26.300Z,46.17
2017-04-21T00:28:48.087Z,46.18
2017-04-21T00:29:14.563Z,46.12
2017-04-21T00:29:36.283Z,45.87
2017-04-21T00:30:34.823Z,45.96
2017-04-21T00:30:56.532Z,45.86
2017-04-21T00:31:23.015Z,45.77
2017-04-21T00:31:44.821Z,45.73
2017-04-21T00:32:16.077Z,45.60
2017-04-21T00:32:37.817Z,45.53
2017-04-21T00:33:04.409Z,45.35
2017-04-21T00:33:26.114Z,45.61
2017-04-21T00:33:52.798Z,45.67
2017-04-21T00:34:14.505Z,45.73
2017-04-21T00:34:36.306Z,45.93
2017-04-21T00:35:02.799Z,46.32
2017-04-21T00:35:24.515Z,46.55
2017-04-21T00:35:46.218Z,46.11
2017-04-21T00:36:12.788Z,46.06
2017-04-21T00:36:34.478Z,46.13
2017-04-21T00:36:56.165Z,46.09
2017-04-21T00:37:22.722Z,46.15
2017-04-21T00:37:44.432Z,46.26
2017-04-21T00:38:06.141Z,46.33
2017-04-21T00:38:32.634Z,46.23
2017-04-21T00:38:54.415Z,46.32
2017-04-21T00:39:20.889Z,46.36
2017-04-21T00:39:42.602Z,46.40
2017-04-21T00:40:04.395Z,46.56
2017-04-21T00:40:26.137Z,46.67
2017-04-21T00:40:47.834Z,46.55
2017-04-21T00:41:09.555Z,46.46
2017-04-21T00:42:08.054Z,46.90
2017-04-21T00:42:29.764Z,46.84
2017-04-21T00:43:01.213Z,46.79
2017-04-21T00:43:22.995Z,46.72
2017-04-21T00:43:44.694Z,46.75
2017-04-21T00:44:11.171Z,47.02
2017-04-21T00:44:32.965Z,47.18
2017-04-21T00:44:59.446Z,47.40
2017-04-21T00:45:21.137Z,47.23
2017-04-21T00:45:42.874Z,47.15
2017-04-21T00:46:14.126Z,47.14
2017-04-21T00:46:35.912Z,47.17
2017-04-21T00:46:57.632Z,47.20
2017-04-21T00:47:28.900Z,47.19
2017-04-21T00:47:50.683Z,47.22
2017-04-21T00:48:21.944Z,47.07
2017-04-21T00:48:43.745Z,46.96
2017-04-21T00:49:42.035Z,47.48
2017-04-21T00:50:03.834Z,47.55
2017-04-21T00:50:25.561Z,47.63
2017-04-21T00:50:52.048Z,47.50
2017-04-21T00:51:13.763Z,47.49
2017-04-21T00:51:40.292Z,47.58
2017-04-21T00:52:01.992Z,47.33
2017-04-21T00:52:23.705Z,47.27
2017-04-21T00:52:54.965Z,47.19
2017-04-21T00:53:16.747Z,47.21
2017-04-21T00:53:43.221Z,47.12
2017-04-21T00:54:04.938Z,47.12
2017-04-21T00:54:26.734Z,47.33
2017-04-21T00:54:58.074Z,47.62
2017-04-21T00:55:56.453Z,47.71
2017-04-21T00:56:18.210Z,47.63
2017-04-21T00:56:39.932Z,47.61
2017-04-21T00:57:01.662Z,47.67
2017-04-21T00:57:23.404Z,47.60
2017-04-21T00:57:45.186Z,47.61
2017-04-21T00:58:06.939Z,47.70
2017-04-21T00:58:28.789Z,47.71
2017-04-21T00:58:50.638Z,47.65
2017-04-21T00:59:12.437Z,47.46
2017-04-21T00:59:34.210Z,47.54
2017-04-21T00:59:55.988Z,47.65
2017-04-21T01:00:17.725Z,47.44
2017-04-21T01:00:39.479Z,47.31
2017-04-21T01:01:01.267Z,47.51
2017-04-21T01:01:22.997Z,47.66
2017-04-21T01:01:44.759Z,47.61
2017-04-21T01:02:06.513Z,47.58
2017-04-21T01:02:28.268Z,47.52
2017-04-21T01:02:50.017Z,47.44
2017-04-21T01:03:11.827Z,47.41
2017-04-21T01:03:33.585Z,47.43
2017-04-21T01:03:55.348Z,47.49
2017-04-21T01:04:17.109Z,47.90
2017-04-21T01:04:38.850Z,47.94
2017-04-21T01:05:00.611Z,47.77
2017-04-21T01:05:22.368Z,47.94
2017-04-21T01:05:44.104Z,48.01
2017-04-21T01:06:05.882Z,48.16
2017-04-21T01:06:27.633Z,48.33
2017-04-21T01:06:49.477Z,48.48
2017-04-21T01:07:11.232Z,48.59
2017-04-21T01:07:32.969Z,48.81
2017-04-21T01:07:54.942Z,48.87
2017-04-21T01:08:16.691Z,48.83
2017-04-21T01:08:38.509Z,48.58
2017-04-21T01:09:00.301Z,48.49
2017-04-21T01:09:22.070Z,48.47
2017-04-21T01:09:43.799Z,48.61
2017-04-21T01:10:05.663Z,48.58
2017-04-21T01:10:27.417Z,48.68
2017-04-21T01:10:49.168Z,48.60
2017-04-21T01:11:10.950Z,48.77
2017-04-21T01:11:32.708Z,48.96
2017-04-21T01:11:54.458Z,49.13
2017-04-21T01:12:20.887Z,49.08
2017-04-21T01:12:42.623Z,49.30
2017-04-21T01:13:08.241Z,49.41
2017-04-21T01:13:29.993Z,49.55
2017-04-21T01:13:51.751Z,49.87
2017-04-21T01:14:23.034Z,49.82
2017-04-21T01:14:45.887Z,49.82
2017-04-21T01:15:07.646Z,49.95
2017-04-21T01:15:29.387Z,49.84
2017-04-21T01:15:51.167Z,49.77
2017-04-21T01:16:12.959Z,49.90
2017-04-21T01:16:34.714Z,49.80
2017-04-21T01:16:56.463Z,50.05
2017-04-21T01:17:18.203Z,50.25
2017-04-21T01:17:39.943Z,50.39
2017-04-21T01:18:47.337Z,50.39
2017-04-21T01:19:09.460Z,50.19
2017-04-21T01:20:12.048Z,49.92
2017-04-21T01:20:33.786Z,49.96
2017-04-21T01:20:55.568Z,49.76
2017-04-21T01:21:17.451Z,50.20
2017-04-21T01:21:39.205Z,50.20
2017-04-21T01:22:01.037Z,50.03
2017-04-21T01:22:22.773Z,49.85
2017-04-21T01:22:44.474Z,49.79
2017-04-21T01:23:06.182Z,49.70
2017-04-21T01:23:27.892Z,49.85
2017-04-21T01:23:49.716Z,50.17
2017-04-21T01:24:11.414Z,50.23
2017-04-21T01:24:33.239Z,50.29
2017-04-21T01:24:54.981Z,49.80
2017-04-21T01:25:16.720Z,49.73
2017-04-21T01:25:38.487Z,49.62
2017-04-21T01:26:00.235Z,49.60
2017-04-21T01:26:22.011Z,49.92
2017-04-21T01:26:43.809Z,49.92
2017-04-21T01:27:05.617Z,49.96
2017-04-21T01:27:27.379Z,49.99
2017-04-21T01:27:49.116Z,49.86
2017-04-21T01:28:10.854Z,49.71
2017-04-21T01:28:32.585Z,49.67
2017-04-21T01:28:54.355Z,49.57
2017-04-21T01:29:16.189Z,49.68
2017-04-21T01:29:37.948Z,49.92
2017-04-21T01:30:04.458Z,50.03
2017-04-21T01:30:26.185Z,50.08
2017-04-21T01:30:47.997Z,50.14
2017-04-21T01:31:09.780Z,50.39
2017-04-21T01:31:31.543Z,50.63
2017-04-21T01:31:53.407Z,50.56
2017-04-21T01:32:15.229Z,50.54
2017-04-21T01:32:37.065Z,50.57
2017-04-21T01:32:58.797Z,50.51
2017-04-21T01:33:20.524Z,50.40
2017-04-21T01:33:42.293Z,50.76
2017-04-21T01:34:04.039Z,50.41
2017-04-21T01:34:25.794Z,50.40
2017-04-21T01:34:47.539Z,50.38
2017-04-21T01:35:09.304Z,50.48
2017-04-21T01:35:31.102Z,50.62
2017-04-21T01:35:52.865Z,50.58
2017-04-21T01:36:14.623Z,50.63
2017-04-21T01:36:36.418Z,50.56
2017-04-21T01:36:58.193Z,50.42
2017-04-21T01:37:19.960Z,50.44
2017-04-21T01:37:41.709Z,50.22
2017-04-21T01:38:03.463Z,50.39
2017-04-21T01:38:25.305Z,50.23
2017-04-21T01:38:47.073Z,50.20
2017-04-21T01:39:08.801Z,50.16
2017-04-21T01:39:30.582Z,50.17
2017-04-21T01:39:52.329Z,49.95
2017-04-21T01:40:14.064Z,49.88
2017-04-21T01:40:35.829Z,50.25
2017-04-21T01:40:57.572Z,50.39
2017-04-21T01:41:19.368Z,50.12
2017-04-21T01:41:41.116Z,50.49
2017-04-21T01:42:02.888Z,50.53
2017-04-21T01:42:24.689Z,50.60
2017-04-21T01:42:46.450Z,50.27
2017-04-21T01:43:08.258Z,50.12
2017-04-21T01:43:29.994Z,50.17
2017-04-21T01:43:51.793Z,50.02
2017-04-21T01:44:13.584Z,50.29
2017-04-21T01:44:35.382Z,50.29
2017-04-21T01:45:01.885Z,50.50
2017-04-21T01:45:23.662Z,50.46
2017-04-21T01:45:45.401Z,50.61
2017-04-21T01:46:07.195Z,50.80
2017-04-21T01:46:28.980Z,50.73
2017-04-21T01:46:50.685Z,50.51
2017-04-21T01:47:12.429Z,50.36
2017-04-21T01:47:34.169Z,50.28
2017-04-21T01:47:55.972Z,50.45
2017-04-21T01:48:17.699Z,50.58
2017-04-21T01:48:39.469Z,50.79
2017-04-21T01:49:01.218Z,50.83
2017-04-21T01:49:22.950Z,50.60
2017-04-21T01:49:44.716Z,50.93
2017-04-21T01:50:06.496Z,50.81
2017-04-21T01:50:28.237Z,50.73
2017-04-21T01:50:50.251Z,50.68
2017-04-21T01:51:11.940Z,50.58
2017-04-21T01:51:33.680Z,50.82
2017-04-21T01:51:55.430Z,50.87
2017-04-21T01:52:17.180Z,50.98
2017-04-21T01:52:38.930Z,50.97
2017-04-21T01:54:18.009Z,51.01
2017-04-21T01:54:39.696Z,50.88
2017-04-21T01:55:02.388Z,50.97
2017-04-21T01:55:33.637Z,50.88
2017-04-21T01:55:55.368Z,51.06
2017-04-21T01:56:17.086Z,51.07
2017-04-21T01:56:38.836Z,51.31
2017-04-21T01:57:00.602Z,51.68
2017-04-21T01:57:22.331Z,51.50
2017-04-21T01:57:44.024Z,51.30
2017-04-21T01:58:05.774Z,51.24
2017-04-21T01:58:32.324Z,51.42
2017-04-21T01:58:54.036Z,51.38
2017-04-21T01:59:15.743Z,51.24
2017-04-21T01:59:37.681Z,51.28
2017-04-21T01:59:59.376Z,51.10
2017-04-21T02:00:21.078Z,51.25
2017-04-21T02:00:42.838Z,51.21
2017-04-21T02:01:04.802Z,51.00
2017-04-21T02:01:26.542Z,51.02
2017-04-21T02:01:48.317Z,50.84
2017-04-21T02:02:10.055Z,50.78
2017-04-21T02:02:31.799Z,50.54
2017-04-21T02:02:58.353Z,50.71
2017-04-21T02:03:24.894Z,50.84
2017-04-21T02:03:46.776Z,50.97
2017-04-21T02:04:13.328Z,51.10
2017-04-21T02:04:35.161Z,51.27
2017-04-21T02:04:56.886Z,51.13
2017-04-21T02:05:18.595Z,51.14
2017-04-21T02:05:40.339Z,51.36
2017-04-21T02:06:02.086Z,51.13
2017-04-21T02:06:23.819Z,50.78
2017-04-21T02:06:45.780Z,50.48
2017-04-21T02:07:12.298Z,50.72
2017-04-21T02:07:34.067Z,50.77
2017-04-21T02:07:55.883Z,51.20
2017-04-21T02:08:22.476Z,51.36
2017-04-21T02:08:44.176Z,51.29
2017-04-21T02:09:05.895Z,51.32
2017-04-21T02:09:32.372Z,51.47
2017-04-21T02:09:54.153Z,51.69
2017-04-21T02:10:15.856Z,52.04
2017-04-21T02:10:37.580Z,51.62
2017-04-21T02:10:59.311Z,52.08
2017-04-21T02:11:21.127Z,51.94
2017-04-21T02:11:47.614Z,52.16
2017-04-21T02:12:09.320Z,52.06
2017-04-21T02:12:31.028Z,52.19
2017-04-21T02:13:02.286Z,52.28
2017-04-21T02:13:24.107Z,52.19
2017-04-21T02:13:55.365Z,51.96
2017-04-21T02:14:17.134Z,52.06
2017-04-21T02:14:43.628Z,52.47
2017-04-21T02:15:05.310Z,52.42
2017-04-21T02:15:27.211Z,52.50
2017-04-21T02:15:58.457Z,52.38
2017-04-21T02:16:20.262Z,52.26
2017-04-21T02:16:51.514Z,51.89
2017-04-21T02:17:13.291Z,52.20
2017-04-21T02:17:44.557Z,52.42
2017-04-21T02:18:06.246Z,52.31
2017-04-21T02:18:28.078Z,52.00
2017-04-21T02:18:54.557Z,51.82
2017-04-21T02:19:16.242Z,51.71
2017-04-21T02:19:42.809Z,51.82
2017-04-21T02:20:04.506Z,52.02
2017-04-21T02:20:30.978Z,51.85
2017-04-21T02:20:52.694Z,51.89
2017-04-21T02:21:14.521Z,52.13
2017-04-21T02:22:17.221Z,51.77
2017-04-21T02:22:43.769Z,51.90
2017-04-21T02:23:10.252Z,51.82
2017-04-21T02:23:31.977Z,51.85
2017-04-21T02:24:03.226Z,51.80
2017-04-21T02:24:25.006Z,52.01
2017-04-21T02:24:51.486Z,51.92
2017-04-21T02:25:13.197Z,52.06
2017-04-21T02:26:15.684Z,51.71
2017-04-21T02:26:37.395Z,52.04
2017-04-21T02:26:59.103Z,51.69
2017-04-21T02:27:30.360Z,51.79
2017-04-21T02:27:52.145Z,51.68
2017-04-21T02:28:18.625Z,51.91
2017-04-21T02:28:40.362Z,51.77
2017-04-21T02:29:11.646Z,51.99
2017-04-21T02:29:33.431Z,51.74
2017-04-21T02:29:55.141Z,51.84
2017-04-21T02:30:17.042Z,51.95
2017-04-21T02:30:38.830Z,51.81
2017-04-21T02:31:00.540Z,52.13
2017-04-21T02:31:22.243Z,51.96
2017-04-21T02:31:43.930Z,51.83
2017-04-21T02:32:10.492Z,51.89
2017-04-21T02:32:32.197Z,51.79
2017-04-21T02:32:53.911Z,51.86
2017-04-21T02:33:15.612Z,51.39
2017-04-21T02:33:37.403Z,51.71
2017-04-21T02:33:59.114Z,51.94
2017-04-21T02:34:25.607Z,51.93
2017-04-21T02:34:47.320Z,51.91
2017-04-21T02:35:09.101Z,52.11
2017-04-21T02:35:35.587Z,52.13
2017-04-21T02:35:57.308Z,52.12
2017-04-21T02:36:28.581Z,52.72
2017-04-21T02:36:50.342Z,52.53
2017-04-21T02:37:12.063Z,52.34
2017-04-21T02:37:38.543Z,52.32
2017-04-21T02:38:00.334Z,52.39
2017-04-21T02:38:22.031Z,52.21
2017-04-21T02:38:48.511Z,52.12
2017-04-21T02:39:10.211Z,52.00
2017-04-21T02:39:32.010Z,51.85
2017-04-21T02:40:03.266Z,51.87
2017-04-21T02:40:24.987Z,52.13
2017-04-21T02:40:46.778Z,51.85
2017-04-21T02:41:18.027Z,51.69
2017-04-21T02:41:39.741Z,51.63
2017-04-21T02:42:01.546Z,51.45
2017-04-21T02:42:28.030Z,51.78
2017-04-21T02:42:49.735Z,51.97
2017-04-21T02:43:16.299Z,52.05
2017-04-21T02:43:38.000Z,52.00
2017-04-21T02:43:59.714Z,51.82
2017-04-21T02:44:21.423Z,51.69
2017-04-21T02:44:43.217Z,51.65
2017-04-21T02:45:04.943Z,51.53
2017-04-21T02:45:31.430Z,51.53
2017-04-21T02:45:53.230Z,51.70
2017-04-21T02:46:14.933Z,52.08
2017-04-21T02:47:13.316Z,52.08
2017-04-21T02:47:35.028Z,51.88
2017-04-21T02:48:06.289Z,52.09
2017-04-21T02:48:28.067Z,52.21
2017-04-21T02:48:54.568Z,52.46
2017-04-21T02:49:16.303Z,52.58
2017-04-21T02:49:42.878Z,52.52
2017-04-21T02:50:04.568Z,52.52
2017-04-21T02:50:26.275Z,52.65
2017-04-21T02:51:33.627Z,52.71
2017-04-21T02:51:55.329Z,52.58
2017-04-21T02:52:17.029Z,52.66
2017-04-21T02:52:43.567Z,52.41
2017-04-21T02:53:05.293Z,52.68
2017-04-21T02:53:26.995Z,52.51
2017-04-21T02:53:48.705Z,52.34
2017-04-21T02:54:10.493Z,52.58
2017-04-21T02:54:32.229Z,52.78
2017-04-21T02:54:58.733Z,52.69
2017-04-21T02:55:20.426Z,52.46
2017-04-21T02:55:51.703Z,52.35
2017-04-21T02:56:13.491Z,51.99
2017-04-21T02:56:39.975Z,51.87
2017-04-21T02:57:01.690Z,52.09
2017-04-21T02:58:04.297Z,52.63
2017-04-21T02:58:26.022Z,52.55
2017-04-21T02:58:57.268Z,52.35
2017-04-21T02:59:19.050Z,52.20
2017-04-21T02:59:40.779Z,52.26
2017-04-21T03:00:43.292Z,52.55
2017-04-21T03:01:41.665Z,52.34
2017-04-21T03:02:03.369Z,52.02
2017-04-21T03:02:29.853Z,51.93
2017-04-21T03:02:51.630Z,51.91
2017-04-21T03:03:13.349Z,51.95
2017-04-21T03:03:39.837Z,51.90
2017-04-21T03:04:01.705Z,51.99
2017-04-21T03:04:28.276Z,52.07
2017-04-21T03:04:49.989Z,52.20
2017-04-21T03:05:11.702Z,52.23
2017-04-21T03:05:38.319Z,52.27
2017-04-21T03:05:59.986Z,52.67
2017-04-21T03:06:21.704Z,53.11
2017-04-21T03:06:43.404Z,52.98
2017-04-21T03:07:05.185Z,52.72
2017-04-21T03:07:31.662Z,52.60
2017-04-21T03:07:53.420Z,52.50
2017-04-21T03:08:24.679Z,52.61
2017-04-21T03:08:46.515Z,52.51
2017-04-21T03:09:12.936Z,52.48
2017-04-21T03:09:34.632Z,52.60
2017-04-21T03:10:01.218Z,52.50
2017-04-21T03:10:22.919Z,52.45
2017-04-21T03:10:49.423Z,52.40
2017-04-21T03:11:11.112Z,52.50
2017-04-21T03:11:42.403Z,52.39
2017-04-21T03:12:04.191Z,52.45
2017-04-21T03:13:06.776Z,52.57
2017-04-21T03:13:28.492Z,52.55
2017-04-21T03:14:27.077Z,52.53
2017-04-21T03:14:48.879Z,52.64
2017-04-21T03:15:10.581Z,52.62
2017-04-21T03:16:13.076Z,52.26
2017-04-21T03:16:39.560Z,52.39
2017-04-21T03:18:22.868Z,52.68
2017-04-21T03:18:44.660Z,53.11
2017-04-21T03:19:11.152Z,53.30
2017-04-21T03:19:32.852Z,53.18
2017-04-21T03:19:59.416Z,53.28
2017-04-21T03:20:21.125Z,53.73
2017-04-21T03:20:42.831Z,53.66
2017-04-21T03:21:14.089Z,53.93
2017-04-21T03:21:35.860Z,53.77
2017-04-21T03:22:34.607Z,53.46
2017-04-21T03:23:01.076Z,53.45
2017-04-21T03:23:22.801Z,53.35
2017-04-21T03:23:44.592Z,53.40
2017-04-21T03:24:06.304Z,53.51
2017-04-21T03:24:28.020Z,53.62
2017-04-21T03:24:49.757Z,53.61
2017-04-21T03:25:11.569Z,53.66
2017-04-21T03:25:33.273Z,53.50
2017-04-21T03:25:54.980Z,53.43
2017-04-21T03:26:16.683Z,53.45
2017-04-21T03:26:43.239Z,53.43
2017-04-21T03:27:04.963Z,53.38
2017-04-21T03:27:26.663Z,53.33
2017-04-21T03:27:57.915Z,53.22
2017-04-21T03:28:19.694Z,53.52
2017-04-21T03:28:50.945Z,53.84
2017-04-21T03:29:12.731Z,53.66
2017-04-21T03:29:34.433Z,53.54
2017-04-21T03:30:00.925Z,53.55
2017-04-21T03:30:23.029Z,53.64
2017-04-21T03:30:49.790Z,53.65
2017-04-21T03:31:11.516Z,53.64
2017-04-21T03:31:37.990Z,53.28
2017-04-21T03:31:59.720Z,53.48
2017-04-21T03:32:30.977Z,53.63
2017-04-21T03:32:52.800Z,53.59
2017-04-21T03:33:14.511Z,53.40
2017-04-21T03:33:36.234Z,53.37
2017-04-21T03:33:58.043Z,53.34
2017-04-21T03:34:29.278Z,53.37
2017-04-21T03:34:50.992Z,53.39
2017-04-21T03:35:22.255Z,53.46
2017-04-21T03:35:44.059Z,53.45
2017-04-21T03:36:05.764Z,53.38
2017-04-21T03:36:37.420Z,53.46
2017-04-21T03:36:59.211Z,53.51
2017-04-21T03:37:30.477Z,53.69
2017-04-21T03:37:52.242Z,53.97
2017-04-21T03:38:18.707Z,53.91
2017-04-21T03:38:40.418Z,54.01
2017-04-21T03:39:06.969Z,53.97
2017-04-21T03:39:28.687Z,54.12
2017-04-21T03:39:55.154Z,53.81
2017-04-21T03:40:16.883Z,53.94
2017-04-21T03:40:43.455Z,54.00
2017-04-21T03:41:05.161Z,53.95
2017-04-21T03:41:26.875Z,54.15
2017-04-21T03:42:25.387Z,54.23
2017-04-21T03:42:51.867Z,54.09
2017-04-21T03:43:13.571Z,54.06
2017-04-21T03:43:35.363Z,53.90
2017-04-21T03:44:06.617Z,53.70
2017-04-21T03:44:28.322Z,53.68
2017-04-21T03:44:50.121Z,53.62
2017-04-21T03:45:21.389Z,53.35
2017-04-21T03:45:43.099Z,53.30
2017-04-21T03:46:04.919Z,53.23
2017-04-21T03:46:36.175Z,53.31
2017-04-21T03:46:57.887Z,53.45
2017-04-21T03:47:19.673Z,53.24
2017-04-21T03:47:50.928Z,53.40
2017-04-21T03:48:12.626Z,53.75
2017-04-21T03:48:34.329Z,53.51
2017-04-21T03:49:00.798Z,53.30
2017-04-21T03:49:22.496Z,53.31
2017-04-21T03:49:44.199Z,53.21
2017-04-21T03:50:10.760Z,53.23
2017-04-21T03:50:32.581Z,53.39
2017-04-21T03:51:30.996Z,53.62
2017-04-21T03:51:52.786Z,53.46
2017-04-21T03:52:24.041Z,53.51
2017-04-21T03:52:45.750Z,53.44
2017-04-21T03:53:07.538Z,53.95
2017-04-21T03:53:29.247Z,53.83
2017-04-21T03:53:50.952Z,53.74
2017-04-21T03:54:12.652Z,53.58
2017-04-21T03:54:34.421Z,53.51
2017-04-21T03:54:56.232Z,53.57
2017-04-21T03:55:18.030Z,53.54
2017-04-21T03:55:44.614Z,53.75
2017-04-21T03:56:06.404Z,53.65
2017-04-21T03:56:28.122Z,53.72
2017-04-21T03:56:54.596Z,53.75
2017-04-21T03:57:16.291Z,53.99
2017-04-21T03:57:38.082Z,54.07
2017-04-21T03:58:04.585Z,54.04
2017-04-21T03:58:26.293Z,53.85
2017-04-21T03:58:48.082Z,53.85
2017-04-21T03:59:14.572Z,53.69
2017-04-21T03:59:36.256Z,53.64
2017-04-21T03:59:57.959Z,53.75
2017-04-21T04:00:19.750Z,53.81
2017-04-21T04:00:41.477Z,53.89
2017-04-21T04:01:03.195Z,53.81
2017-04-21T04:01:29.772Z,53.82
2017-04-21T04:01:51.480Z,54.30
2017-04-21T04:02:13.193Z,54.09
2017-04-21T04:02:34.904Z,53.98
2017-04-21T04:02:56.695Z,54.07
2017-04-21T04:03:27.959Z,54.07
2017-04-21T04:03:49.655Z,54.10
2017-04-21T04:04:20.910Z,53.91
2017-04-21T04:04:42.702Z,54.21
2017-04-21T04:05:04.409Z,54.42
2017-04-21T04:05:30.914Z,54.49
2017-04-21T04:05:52.724Z,54.33
2017-04-21T04:07:00.022Z,54.24
2017-04-21T04:07:21.730Z,54.19
2017-04-21T04:07:52.975Z,54.45
2017-04-21T04:08:14.683Z,54.29
2017-04-21T04:08:36.486Z,54.08
2017-04-21T04:08:58.586Z,53.99
2017-04-21T04:09:20.282Z,54.17
2017-04-21T04:09:51.530Z,54.07
2017-04-21T04:10:13.323Z,54.09
2017-04-21T04:10:44.569Z,54.69
2017-04-21T04:11:06.384Z,54.62
2017-04-21T04:11:37.639Z,54.60
2017-04-21T04:11:59.334Z,54.64
2017-04-21T04:12:21.299Z,54.54
2017-04-21T04:12:42.997Z,54.48
2017-04-21T04:13:04.713Z,54.37
2017-04-21T04:13:35.966Z,54.31
2017-04-21T04:13:57.748Z,54.31
2017-04-21T04:15:05.019Z,54.51
2017-04-21T04:15:26.725Z,54.46
2017-04-21T04:15:58.011Z,54.71
2017-04-21T04:16:19.736Z,54.67
2017-04-21T04:16:41.477Z,54.75
2017-04-21T04:17:29.740Z,54.52
2017-04-21T04:17:51.446Z,54.45
2017-04-21T04:18:17.932Z,54.82
2017-04-21T04:18:39.635Z,54.81
2017-04-21T04:19:06.110Z,54.70
2017-04-21T04:19:27.813Z,54.54
2017-04-21T04:19:49.508Z,54.60
2017-04-21T04:20:20.894Z,54.50
2017-04-21T04:20:42.590Z,54.63
2017-04-21T04:21:09.093Z,54.70
2017-04-21T04:21:30.782Z,54.64
2017-04-21T04:21:52.580Z,54.64
2017-04-21T04:22:19.051Z,54.86
2017-04-21T04:22:40.742Z,54.87
2017-04-21T04:23:02.562Z,54.68
2017-04-21T04:23:33.813Z,54.40
2017-04-21T04:23:55.519Z,54.23
2017-04-21T04:24:54.022Z,54.09
2017-04-21T04:25:56.615Z,54.28
2017-04-21T04:26:18.340Z,54.15
2017-04-21T04:26:49.599Z,54.39
2017-04-21T04:27:11.369Z,54.30
2017-04-21T04:27:42.620Z,54.32
2017-04-21T04:28:04.327Z,54.32
2017-04-21T04:28:30.868Z,54.70
2017-04-21T04:28:52.569Z,54.52
2017-04-21T04:29:23.821Z,55.06
2017-04-21T04:29:45.607Z,54.71
2017-04-21T04:30:12.092Z,54.69
2017-04-21T04:30:33.811Z,54.74
2017-04-21T04:32:12.969Z,54.89
2017-04-21T04:32:34.792Z,54.84
2017-04-21T04:32:56.779Z,55.00
2017-04-21T04:33:18.660Z,54.87
2017-04-21T04:33:40.429Z,55.23
2017-04-21T04:34:02.451Z,54.95
2017-04-21T04:34:24.474Z,54.93
2017-04-21T04:34:46.521Z,54.87
2017-04-21T04:35:09.144Z,54.81
2017-04-21T04:35:31.410Z,54.65
2017-04-21T04:35:53.120Z,54.73
2017-04-21T04:36:14.881Z,54.63
2017-04-21T04:36:36.784Z,54.61
2017-04-21T04:36:58.537Z,54.59
2017-04-21T04:37:20.460Z,54.80
2017-04-21T04:37:42.305Z,54.75
2017-04-21T04:38:04.069Z,54.69
2017-04-21T04:38:35.329Z,54.44
2017-04-21T04:39:02.341Z,54.70
2017-04-21T04:39:24.121Z,54.95
2017-04-21T04:39:50.679Z,54.65
2017-04-21T04:40:15.282Z,54.75
2017-04-21T04:40:36.992Z,54.71
2017-04-21T04:40:58.795Z,54.66
2017-04-21T04:41:21.017Z,54.72
2017-04-21T04:41:42.911Z,54.56
2017-04-21T04:42:04.857Z,54.69
2017-04-21T04:42:26.790Z,55.01
2017-04-21T04:42:48.895Z,54.81
2017-04-21T04:43:10.558Z,54.76
2017-04-21T04:43:32.332Z,54.57
2017-04-21T04:43:54.130Z,54.64
2017-04-21T04:44:15.972Z,54.94
2017-04-21T04:44:37.759Z,55.01
2017-04-21T04:44:59.570Z,54.95
2017-04-21T04:45:21.556Z,54.98
2017-04-21T04:45:43.671Z,55.03
2017-04-21T04:46:05.600Z,55.08
2017-04-21T04:46:27.334Z,55.13
2017-04-21T04:46:49.388Z,54.77
2017-04-21T04:47:11.214Z,54.89
2017-04-21T04:47:32.954Z,54.81
2017-04-21T04:47:54.853Z,54.87
2017-04-21T04:48:16.728Z,54.71
2017-04-21T04:48:38.452Z,54.47
2017-04-21T04:49:00.442Z,54.81
2017-04-21T04:49:22.271Z,54.50
2017-04-21T04:49:44.029Z,54.47
2017-04-21T04:50:05.857Z,54.45
2017-04-21T04:50:27.857Z,54.77
2017-04-21T04:50:49.995Z,55.03
2017-04-21T04:51:12.064Z,54.93
2017-04-21T04:51:34.151Z,54.98
2017-04-21T04:53:15.812Z,55.26
2017-04-21T04:53:37.550Z,55.28
2017-04-21T04:53:59.322Z,55.44
2017-04-21T04:54:28.725Z,55.76
2017-04-21T04:54:51.504Z,55.61
2017-04-21T04:55:13.518Z,55.68
2017-04-21T04:55:35.620Z,55.49
2017-04-21T04:55:57.525Z,55.55
2017-04-21T04:56:19.545Z,55.47
2017-04-21T04:56:41.526Z,55.34
2017-04-21T04:57:03.297Z,55.64
2017-04-21T04:57:34.574Z,55.77
2017-04-21T04:57:56.490Z,55.54
2017-04-21T04:58:18.234Z,55.39
2017-04-21T04:58:40.103Z,55.68
2017-04-21T04:59:01.838Z,55.71
2017-04-21T04:59:23.628Z,55.26
2017-04-21T04:59:45.490Z,55.01
2017-04-21T05:00:07.223Z,55.17
2017-04-21T05:00:29.017Z,55.17
2017-04-21T05:00:50.801Z,55.12
2017-04-21T05:01:12.771Z,55.31
2017-04-21T05:01:34.532Z,55.27
2017-04-21T05:01:56.705Z,55.28
2017-04-21T05:02:18.567Z,55.39
2017-04-21T05:02:40.518Z,55.35
2017-04-21T05:03:02.379Z,55.45
2017-04-21T05:03:24.123Z,55.50
2017-04-21T05:03:46.181Z,55.71
2017-04-21T05:04:08.066Z,55.55
2017-04-21T05:04:29.812Z,55.76
2017-04-21T05:04:52.050Z,55.66
2017-04-21T05:05:13.762Z,55.42
2017-04-21T05:05:35.552Z,55.36
2017-04-21T05:05:57.298Z,55.32
2017-04-21T05:06:19.242Z,55.17
2017-04-21T05:06:48.509Z,55.19
2017-04-21T05:07:10.255Z,55.16
2017-04-21T05:07:32.303Z,55.26
2017-04-21T05:07:54.033Z,55.39
2017-04-21T05:08:20.516Z,55.12
2017-04-21T05:08:42.245Z,55.10
2017-04-21T05:09:03.944Z,55.15
2017-04-21T05:09:25.644Z,55.00
2017-04-21T05:09:47.441Z,55.05
2017-04-21T05:10:09.613Z,55.21
2017-04-21T05:10:31.429Z,55.21
2017-04-21T05:10:54.600Z,55.44
2017-04-21T05:11:16.340Z,55.58
2017-04-21T05:11:38.195Z,55.72
2017-04-21T05:11:59.997Z,55.73
2017-04-21T05:12:21.794Z,55.73
2017-04-21T05:12:43.513Z,55.83
2017-04-21T05:13:07.760Z,55.98
2017-04-21T05:13:30.010Z,55.82
2017-04-21T05:13:51.724Z,55.80
2017-04-21T05:14:13.579Z,55.70
2017-04-21T05:14:36.140Z,55.81
2017-04-21T05:14:58.019Z,55.65
2017-04-21T05:15:20.385Z,55.62
2017-04-21T05:15:42.155Z,55.68
2017-04-21T05:16:04.208Z,55.95
2017-04-21T05:16:25.969Z,56.11
2017-04-21T05:16:47.669Z,56.04
2017-04-21T05:17:09.537Z,56.01
2017-04-21T05:17:31.394Z,55.65
2017-04-21T05:17:53.312Z,55.60
2017-04-21T05:18:15.276Z,55.55
2017-04-21T05:18:36.998Z,55.54
2017-04-21T05:18:59.542Z,55.78
2017-04-21T05:19:21.821Z,55.50
2017-04-21T05:19:43.874Z,55.43
2017-04-21T05:20:06.042Z,55.53
2017-04-21T05:20:27.867Z,55.53
2017-04-21T05:20:50.159Z,55.62
2017-04-21T05:21:12.452Z,55.83
2017-04-21T05:21:34.409Z,55.57
2017-04-21T05:22:38.195Z,55.58
2017-04-21T05:23:00.352Z,55.29
2017-04-21T05:23:22.092Z,55.14
2017-04-21T05:23:44.014Z,55.15